Hovedside
METAR-TAF:

METAR-TAF

Lufthavner :

Nikola Tesla lufthavn

Beograd, Serbia

breddegrad: 44-49N, lengdegrad: 020-17E, høyde over havet: 96 m

Gjeldene værobservasjon

Denne rapporten ble laget for 22 minutter siden, klokken 19:30 UTC
Vind 2 kt fra Nord-nordøst
Temperatur 24°C
Luftfuktighet 65%
Trykk 1015 hPa
Sikt 10 km eller mer
ingen skyer under 1500 m og ingen bygeskyer

METAR: LYBE 161930Z 03002KT CAVOK 24/17 Q1015 NOSIG

Tid: 21:52 (19:52 UTC)

Varsel

Denne rapporten ble laget for 2 timer og 52 minutter siden, klokken 17:00 UTC
Varsel gyldig fra 16. klokken 18 UTC til 17. klokken 18 UTC
Vind 7 kt fra Nord-nordvest
Sikt 10 km eller mer
ingen skyer under 1500 m og ingen bygeskyer
Midlertidig
fra 17. klokken 13 UTC til 17. klokken 16 UTC
Sikt: 5000 m
Spredte skyer i en høyde av 3000 ft, Bygeskyer.
Spredte skyer i en høyde av 3300 ft
torden, regn

TAF: LYBE 161700Z 1618/1718 34007KT CAVOK TX31/1713Z TN18/1703Z TEMPO 1713/1716 5000 TSRA SCT030CB SCT033

Værobservasjoner og værvarsel for over 4000 flyplasser (METAR- og TAF-rapporter).

Tilgjengelige stasjoner er representert av de røde og gule prikkene på kartet.

Hold musepekeren over prikken for å se navnet på stasjonen.

Klikk så for å se værobservasjoner og -varsler.

For å forandre kartet kan du klikke på den grønne knappen med svart kryss for å zoome inn, på den grønne knappen med strek for å zoome ut, eller på de grønne pilene for å se tilstøtende kart.


METAR-TAF: